Time;durP1;ratioP1;P1;durP2;ratioP2;P2;SDS_P1;SDS_P2;PMS_P1;PMS_P2;Temp;Humidity;BMP_temperature;BMP_pressure;BME280_temperature;BME280_humidity;BME280_pressure;Samples;Min_cycle;Max_cycle;Signal;HPM_P1;HPM_P2
2022/04/10 00:00:23;;;;;;;;;;;7.00;99.90;;;;;;4972366;28;19945;-84
2022/04/10 00:02:49;;;;;;;;;;;7.00;99.90;;;;;;4972168;28;20352;-84
2022/04/10 00:05:14;;;;;;;;;;;7.00;99.90;;;;;;4972170;28;19966;-84
2022/04/10 00:07:40;;;;;;;;;;;7.00;99.90;;;;;;4973396;28;20303;-84
2022/04/10 00:10:06;;;;;;;;;;;7.00;99.90;;;;;;4973563;28;20001;-84
2022/04/10 00:12:33;;;;;;;;;;;7.00;99.90;;;;;;4973583;28;20288;-84
2022/04/10 00:14:58;;;;;;;;;;;7.00;99.90;;;;;;4973482;28;19910;-84
2022/04/10 00:17:24;;;;;;;;;;;6.90;99.90;;;;;;4973455;28;19920;-84
2022/04/10 00:19:49;;;;;;;;;;;6.90;99.90;;;;;;4971850;28;19910;-84
2022/04/10 00:22:15;;;;;;;;;;;6.90;99.90;;;;;;4971368;28;20379;-84
2022/04/10 00:24:40;;;;;;;;;;;6.90;99.90;;;;;;4971786;28;19910;-84
2022/04/10 00:27:07;;;;;;;;;;;6.80;99.90;;;;;;4973163;28;19981;-84
2022/04/10 00:29:32;;;;;;;;;;;6.90;99.90;;;;;;4971913;28;19938;-84
2022/04/10 00:31:59;;;;;;;;;;;6.90;99.90;;;;;;4973173;28;19922;-84
2022/04/10 00:34:24;;;;;;;;;;;6.80;99.90;;;;;;4971873;28;19957;-84
2022/04/10 00:36:50;;;;;;;;;;;6.80;99.90;;;;;;4972983;28;20345;-84
2022/04/10 00:39:15;;;;;;;;;;;6.80;99.90;;;;;;4972810;28;19925;-85
2022/04/10 00:41:41;;;;;;;;;;;6.80;99.90;;;;;;4972901;28;20001;-84
2022/04/10 00:44:08;;;;;;;;;;;6.80;99.90;;;;;;4972531;28;19972;-84
2022/04/10 00:46:34;;;;;;;;;;;6.70;99.90;;;;;;4972746;28;19914;-84
2022/04/10 00:49:00;;;;;;;;;;;6.70;99.90;;;;;;4971501;28;19916;-84
2022/04/10 00:51:43;;;;;;;;;;;6.60;99.90;;;;;;4971363;28;20389;-84
2022/04/10 00:54:19;;;;;;;;;;;6.60;99.90;;;;;;4972701;28;19914;-84
2022/04/10 00:56:45;;;;;;;;;;;6.60;99.90;;;;;;4972793;28;19976;-84
2022/04/10 00:59:14;;;;;;;;;;;6.50;99.90;;;;;;4971230;28;19914;-84
2022/04/10 01:01:44;;;;;;;;;;;6.60;99.90;;;;;;4972474;28;19917;-85
2022/04/10 01:04:10;;;;;;;;;;;6.50;99.90;;;;;;4972506;28;19922;-84
2022/04/10 01:06:36;;;;;;;;;;;6.50;99.90;;;;;;4972537;28;19910;-84
2022/04/10 01:09:03;;;;;;;;;;;6.40;99.90;;;;;;4972430;28;19976;-84
2022/04/10 01:11:28;;;;;;;;;;;6.40;99.90;;;;;;4971231;28;19914;-84
2022/04/10 01:13:54;;;;;;;;;;;6.40;99.90;;;;;;4972246;28;20393;-84
2022/04/10 01:16:22;;;;;;;;;;;6.30;99.90;;;;;;4971989;28;19910;-84
2022/04/10 01:18:49;;;;;;;;;;;6.30;99.90;;;;;;4970816;28;19910;-84
2022/04/10 01:21:25;;;;;;;;;;;6.30;99.90;;;;;;4972242;28;19911;-84
2022/04/10 01:23:54;;;;;;;;;;;6.30;99.90;;;;;;4972215;28;19973;-84
2022/04/10 01:26:21;;;;;;;;;;;6.20;99.90;;;;;;4972516;28;20001;-84
2022/04/10 01:29:03;;;;;;;;;;;6.20;99.90;;;;;;4972161;28;20434;-85
2022/04/10 01:31:29;;;;;;;;;;;6.20;99.90;;;;;;4972001;28;19910;-85
2022/04/10 01:33:56;;;;;;;;;;;6.20;99.90;;;;;;4971152;28;19910;-84
2022/04/10 01:36:23;;;;;;;;;;;6.20;99.90;;;;;;4972223;28;20000;-84
2022/04/10 01:38:49;;;;;;;;;;;6.20;99.90;;;;;;4971980;28;19916;-84
2022/04/10 01:41:14;;;;;;;;;;;6.20;99.90;;;;;;4972183;28;19925;-84
2022/04/10 01:43:47;;;;;;;;;;;6.20;99.90;;;;;;4970668;28;19924;-84
2022/04/10 01:46:13;;;;;;;;;;;6.20;99.90;;;;;;4970651;28;19910;-84
2022/04/10 01:48:39;;;;;;;;;;;6.20;99.90;;;;;;4970664;28;20289;-84
2022/04/10 01:51:05;;;;;;;;;;;6.10;99.90;;;;;;4971779;28;19917;-84
2022/04/10 01:53:30;;;;;;;;;;;6.10;99.90;;;;;;4970520;28;19965;-84
2022/04/10 01:55:56;;;;;;;;;;;6.10;99.90;;;;;;4970356;28;19921;-84
2022/04/10 01:58:22;;;;;;;;;;;6.10;99.90;;;;;;4972330;28;19987;-84
2022/04/10 02:00:47;;;;;;;;;;;6.10;99.90;;;;;;4970420;28;19918;-84
2022/04/10 02:03:13;;;;;;;;;;;6.10;99.90;;;;;;4971809;28;19977;-84
2022/04/10 02:05:38;;;;;;;;;;;6.00;99.90;;;;;;4972272;28;19910;-84
2022/04/10 02:08:04;;;;;;;;;;;6.00;99.90;;;;;;4970259;28;19945;-84
2022/04/10 02:10:29;;;;;;;;;;;6.00;99.90;;;;;;4971725;28;20291;-84
2022/04/10 02:12:55;;;;;;;;;;;6.10;99.90;;;;;;4971681;28;19910;-84
2022/04/10 02:15:21;;;;;;;;;;;6.10;99.90;;;;;;4971667;28;20330;-84
2022/04/10 02:17:46;;;;;;;;;;;6.10;99.90;;;;;;4971788;28;20406;-84
2022/04/10 02:20:12;;;;;;;;;;;6.10;99.90;;;;;;4971931;28;19933;-84
2022/04/10 02:22:37;;;;;;;;;;;6.10;99.90;;;;;;4971812;28;20354;-84
2022/04/10 02:25:03;;;;;;;;;;;6.10;99.90;;;;;;4971745;28;20275;-84
2022/04/10 02:27:28;;;;;;;;;;;6.10;99.90;;;;;;4971612;28;19914;-84
2022/04/10 02:29:54;;;;;;;;;;;6.00;99.90;;;;;;4971585;28;19917;-84
2022/04/10 02:32:19;;;;;;;;;;;6.00;99.90;;;;;;4971095;28;19936;-83
2022/04/10 02:34:45;;;;;;;;;;;6.00;99.90;;;;;;4971523;28;19918;-84
2022/04/10 02:37:11;;;;;;;;;;;6.00;99.90;;;;;;4971713;28;20001;-84
2022/04/10 02:39:36;;;;;;;;;;;5.90;99.90;;;;;;4970449;28;19910;-84
2022/04/10 02:42:02;;;;;;;;;;;5.90;99.90;;;;;;4972131;28;19961;-84
2022/04/10 02:44:27;;;;;;;;;;;5.90;99.90;;;;;;4970725;28;19949;-84
2022/04/10 02:46:53;;;;;;;;;;;5.90;99.90;;;;;;4974841;28;20256;-84
2022/04/10 02:49:19;;;;;;;;;;;5.90;99.90;;;;;;4973400;28;19918;-84
2022/04/10 02:51:47;;;;;;;;;;;6.00;99.90;;;;;;4974957;28;19910;-84
2022/04/10 02:54:13;;;;;;;;;;;6.00;99.90;;;;;;4973803;28;19917;-84
2022/04/10 02:56:38;;;;;;;;;;;6.00;99.90;;;;;;4974932;28;19914;-84
2022/04/10 02:59:04;;;;;;;;;;;6.00;99.90;;;;;;4974991;28;20358;-84
2022/04/10 03:01:29;;;;;;;;;;;5.90;99.90;;;;;;4973412;28;20004;-84
2022/04/10 03:03:55;;;;;;;;;;;5.90;99.90;;;;;;4974417;28;19929;-84
2022/04/10 03:06:20;;;;;;;;;;;5.90;99.90;;;;;;4975100;28;19917;-84
2022/04/10 03:08:46;;;;;;;;;;;5.90;99.90;;;;;;4973061;28;19922;-84
2022/04/10 03:11:12;;;;;;;;;;;5.90;99.90;;;;;;4974360;28;20137;-84
2022/04/10 03:13:37;;;;;;;;;;;5.80;99.90;;;;;;4974773;28;20110;-84
2022/04/10 03:16:03;;;;;;;;;;;5.80;99.90;;;;;;4973179;28;19940;-84
2022/04/10 03:18:28;;;;;;;;;;;5.80;99.90;;;;;;4974694;28;19949;-84
2022/04/10 03:20:54;;;;;;;;;;;5.80;99.90;;;;;;4973364;28;19914;-84
2022/04/10 03:23:19;;;;;;;;;;;5.80;99.90;;;;;;4974289;28;20072;-84
2022/04/10 03:25:45;;;;;;;;;;;5.80;99.90;;;;;;4974225;28;20335;-84
2022/04/10 03:28:10;;;;;;;;;;;5.90;99.90;;;;;;4974271;28;19910;-84
2022/04/10 03:30:36;;;;;;;;;;;5.90;99.90;;;;;;4974173;28;19945;-84
2022/04/10 03:33:01;;;;;;;;;;;5.90;99.90;;;;;;4974224;28;19949;-84
2022/04/10 03:35:27;;;;;;;;;;;5.90;99.90;;;;;;4974345;28;19952;-84
2022/04/10 03:37:52;;;;;;;;;;;5.90;99.90;;;;;;4974162;28;19910;-84
2022/04/10 03:40:18;;;;;;;;;;;5.90;99.90;;;;;;4973978;28;19910;-84
2022/04/10 03:42:43;;;;;;;;;;;5.90;99.90;;;;;;4974029;28;19964;-84
2022/04/10 03:45:10;;;;;;;;;;;5.90;99.90;;;;;;4972939;28;19910;-84
2022/04/10 03:47:36;;;;;;;;;;;6.00;99.90;;;;;;4972619;28;20002;-84
2022/04/10 03:50:02;;;;;;;;;;;5.90;99.90;;;;;;4973822;28;19917;-84
2022/04/10 03:52:27;;;;;;;;;;;5.90;99.90;;;;;;4973981;28;20272;-84
2022/04/10 03:54:53;;;;;;;;;;;5.90;99.90;;;;;;4972691;28;19916;-84
2022/04/10 03:57:18;;;;;;;;;;;5.90;99.90;;;;;;4972810;28;19973;-84
2022/04/10 03:59:44;;;;;;;;;;;5.90;99.90;;;;;;4973630;28;19958;-84
2022/04/10 04:02:09;;;;;;;;;;;5.90;99.90;;;;;;4972169;28;19914;-84
2022/04/10 04:04:38;;;;;;;;;;;5.80;99.90;;;;;;4973559;28;19921;-84
2022/04/10 04:07:03;;;;;;;;;;;5.80;99.90;;;;;;4973362;28;19910;-84
2022/04/10 04:09:29;;;;;;;;;;;5.80;99.90;;;;;;4972980;28;19980;-84
2022/04/10 04:11:54;;;;;;;;;;;5.80;99.90;;;;;;4973580;28;19918;-84
2022/04/10 04:14:20;;;;;;;;;;;5.70;99.90;;;;;;4972269;28;19917;-84
2022/04/10 04:16:46;;;;;;;;;;;5.60;99.90;;;;;;4973599;28;19921;-84
2022/04/10 04:19:11;;;;;;;;;;;5.60;99.90;;;;;;4973401;28;19910;-84
2022/04/10 04:21:37;;;;;;;;;;;5.60;99.90;;;;;;4973183;28;19910;-83
2022/04/10 04:24:02;;;;;;;;;;;5.60;99.90;;;;;;4973330;28;19922;-84
2022/04/10 04:26:28;;;;;;;;;;;5.60;99.90;;;;;;4973416;28;20005;-84
2022/04/10 04:28:53;;;;;;;;;;;5.60;99.90;;;;;;4973302;28;19993;-84
2022/04/10 04:31:19;;;;;;;;;;;5.60;99.90;;;;;;4971572;28;19918;-84
2022/04/10 04:33:44;;;;;;;;;;;5.60;99.90;;;;;;4972012;28;19921;-84
2022/04/10 04:36:10;;;;;;;;;;;5.60;99.90;;;;;;4972986;28;19910;-84
2022/04/10 04:38:35;;;;;;;;;;;5.60;99.90;;;;;;4971453;28;20041;-84
2022/04/10 04:41:01;;;;;;;;;;;5.60;99.90;;;;;;4973093;28;19952;-84
2022/04/10 04:43:26;;;;;;;;;;;5.50;99.90;;;;;;4971640;28;19973;-84
2022/04/10 04:45:52;;;;;;;;;;;5.50;99.90;;;;;;4971525;28;19949;-84
2022/04/10 04:48:17;;;;;;;;;;;5.60;99.90;;;;;;4971659;28;20358;-83
2022/04/10 04:50:44;;;;;;;;;;;5.60;99.90;;;;;;4972935;28;19910;-84
2022/04/10 04:53:09;;;;;;;;;;;5.50;99.90;;;;;;4972680;28;19910;-84
2022/04/10 04:55:35;;;;;;;;;;;5.50;99.90;;;;;;4972664;28;20343;-83
2022/04/10 04:58:00;;;;;;;;;;;5.50;99.90;;;;;;4972688;28;19960;-84
2022/04/10 05:00:26;;;;;;;;;;;5.60;99.90;;;;;;4972683;28;19910;-84
2022/04/10 05:02:51;;;;;;;;;;;5.60;99.90;;;;;;4972470;28;19918;-84
2022/04/10 05:05:17;;;;;;;;;;;5.60;99.90;;;;;;4971358;28;20410;-84
2022/04/10 05:07:43;;;;;;;;;;;5.60;99.90;;;;;;4972257;28;19918;-84
2022/04/10 05:10:08;;;;;;;;;;;5.60;99.90;;;;;;4972411;28;19922;-84
2022/04/10 05:12:34;;;;;;;;;;;5.50;99.90;;;;;;4971063;28;19910;-84
2022/04/10 05:15:00;;;;;;;;;;;5.60;99.90;;;;;;4972343;28;20260;-84
2022/04/10 05:17:28;;;;;;;;;;;5.60;99.90;;;;;;4972324;28;19980;-84
2022/04/10 05:19:54;;;;;;;;;;;5.60;99.90;;;;;;4971308;28;19921;-84
2022/04/10 05:22:19;;;;;;;;;;;5.60;99.90;;;;;;4972464;28;19910;-83
2022/04/10 05:24:45;;;;;;;;;;;5.60;99.90;;;;;;4971077;28;20375;-84
2022/04/10 05:27:10;;;;;;;;;;;5.60;99.90;;;;;;4972369;28;20272;-84
2022/04/10 05:29:36;;;;;;;;;;;5.60;99.90;;;;;;4972186;28;19926;-84
2022/04/10 05:32:02;;;;;;;;;;;5.60;99.90;;;;;;4971954;28;20010;-84
2022/04/10 05:34:27;;;;;;;;;;;5.60;99.90;;;;;;4972094;28;20416;-84
2022/04/10 05:36:53;;;;;;;;;;;5.60;99.90;;;;;;4972214;28;19958;-84
2022/04/10 05:39:18;;;;;;;;;;;5.60;99.90;;;;;;4972524;28;19918;-84
2022/04/10 05:41:44;;;;;;;;;;;5.70;99.90;;;;;;4972300;28;19910;-84
2022/04/10 05:44:09;;;;;;;;;;;5.60;99.90;;;;;;4972094;28;19924;-84
2022/04/10 05:46:38;;;;;;;;;;;5.70;99.90;;;;;;4972066;28;20001;-83
2022/04/10 05:49:05;;;;;;;;;;;5.70;99.90;;;;;;4971788;28;19918;-84
2022/04/10 05:51:30;;;;;;;;;;;5.70;99.90;;;;;;4970495;28;20439;-84
2022/04/10 05:53:56;;;;;;;;;;;5.70;99.90;;;;;;4970649;28;19918;-84
2022/04/10 05:56:21;;;;;;;;;;;5.80;99.90;;;;;;4972219;28;19914;-84
2022/04/10 05:58:47;;;;;;;;;;;5.80;99.90;;;;;;4971941;28;19911;-84
2022/04/10 06:01:13;;;;;;;;;;;5.80;99.90;;;;;;4972023;28;19910;-83
2022/04/10 06:03:38;;;;;;;;;;;5.80;99.90;;;;;;4970536;28;19919;-84
2022/04/10 06:06:04;;;;;;;;;;;5.90;99.90;;;;;;4971755;28;19911;-84
2022/04/10 06:08:30;;;;;;;;;;;5.90;99.90;;;;;;4970207;28;19922;-84
2022/04/10 06:10:55;;;;;;;;;;;6.00;99.90;;;;;;4971819;28;19911;-84
2022/04/10 06:13:21;;;;;;;;;;;6.00;99.90;;;;;;4971801;28;19976;-84
2022/04/10 06:15:47;;;;;;;;;;;6.10;99.90;;;;;;4970399;28;19910;-84
2022/04/10 06:18:13;;;;;;;;;;;6.00;99.90;;;;;;4971936;28;19917;-84
2022/04/10 06:20:38;;;;;;;;;;;6.10;99.90;;;;;;4974244;28;20356;-85
2022/04/10 06:23:04;;;;;;;;;;;6.20;99.90;;;;;;4975638;28;19925;-85
2022/04/10 06:25:30;;;;;;;;;;;6.30;99.90;;;;;;4975981;28;19945;-85
2022/04/10 06:27:56;;;;;;;;;;;6.40;99.90;;;;;;4985758;28;19914;-85
2022/04/10 06:30:22;;;;;;;;;;;6.40;99.90;;;;;;4994173;28;19946;-85
2022/04/10 06:32:48;;;;;;;;;;;6.50;99.90;;;;;;4993753;28;19957;-85
2022/04/10 06:35:14;;;;;;;;;;;6.60;99.90;;;;;;4994322;28;19910;-85
2022/04/10 06:37:39;;;;;;;;;;;6.70;99.90;;;;;;4994008;28;20436;-84
2022/04/10 06:40:05;;;;;;;;;;;6.70;99.90;;;;;;5008894;28;19910;-85
2022/04/10 06:42:31;;;;;;;;;;;6.80;99.90;;;;;;4993659;28;19973;-85
2022/04/10 06:44:57;;;;;;;;;;;6.90;99.90;;;;;;4993901;28;19956;-84
2022/04/10 06:47:22;;;;;;;;;;;7.00;99.90;;;;;;5009557;28;19910;-85
2022/04/10 06:49:48;;;;;;;;;;;7.00;99.90;;;;;;4995077;28;19909;-85
2022/04/10 06:52:14;;;;;;;;;;;7.10;99.90;;;;;;4994610;28;19914;-85
2022/04/10 06:54:39;;;;;;;;;;;7.10;99.90;;;;;;4996055;28;19914;-84
2022/04/10 06:57:05;;;;;;;;;;;7.10;99.90;;;;;;4996780;28;19910;-84
2022/04/10 06:59:30;;;;;;;;;;;7.20;99.90;;;;;;4995131;28;20382;-85
2022/04/10 07:01:56;;;;;;;;;;;7.20;99.90;;;;;;4995709;28;19920;-84
2022/04/10 07:04:21;;;;;;;;;;;7.30;99.90;;;;;;4995334;28;19960;-84
2022/04/10 07:06:47;;;;;;;;;;;7.40;99.90;;;;;;4994107;28;20389;-85
2022/04/10 07:09:16;;;;;;;;;;;7.40;99.90;;;;;;4995904;28;20405;-85
2022/04/10 07:11:41;;;;;;;;;;;7.50;99.90;;;;;;4994066;28;19956;-85
2022/04/10 07:14:07;;;;;;;;;;;7.60;99.90;;;;;;4994347;28;19909;-85
2022/04/10 07:16:33;;;;;;;;;;;7.70;99.90;;;;;;4993120;28;19931;-84
2022/04/10 07:18:58;;;;;;;;;;;7.80;99.90;;;;;;4995996;28;20421;-84
2022/04/10 07:24:08;;;;;;;;;;;8.00;99.90;;;;;;4997308;28;20113;-84
2022/04/10 07:26:33;;;;;;;;;;;8.20;99.90;;;;;;4992606;28;19910;-85
2022/04/10 07:28:59;;;;;;;;;;;8.30;99.90;;;;;;4993820;28;19910;-85
2022/04/10 07:31:24;;;;;;;;;;;8.40;99.90;;;;;;4995744;28;20394;-85
2022/04/10 07:33:50;;;;;;;;;;;8.60;99.90;;;;;;4994455;28;19906;-85
2022/04/10 07:36:15;;;;;;;;;;;8.60;99.90;;;;;;4993914;28;19921;-85
2022/04/10 07:38:41;;;;;;;;;;;8.70;99.90;;;;;;4993633;28;20060;-85
2022/04/10 07:41:06;;;;;;;;;;;8.80;99.90;;;;;;4995151;28;20294;-85
2022/04/10 07:43:32;;;;;;;;;;;8.90;99.90;;;;;;4992984;28;20172;-85
2022/04/10 07:48:44;;;;;;;;;;;9.00;99.90;;;;;;4993859;28;19977;-85
2022/04/10 07:51:10;;;;;;;;;;;9.00;99.90;;;;;;4993338;28;20018;-85
2022/04/10 07:53:36;;;;;;;;;;;9.00;99.90;;;;;;4992021;28;19914;-86
2022/04/10 07:56:02;;;;;;;;;;;9.00;99.90;;;;;;4993616;28;20310;-85
2022/04/10 07:58:27;;;;;;;;;;;9.00;99.90;;;;;;4993302;28;19936;-84
2022/04/10 08:00:53;;;;;;;;;;;9.10;99.90;;;;;;4991535;28;19914;-84
2022/04/10 08:03:18;;;;;;;;;;;9.10;99.90;;;;;;4991672;28;20020;-84
2022/04/10 08:05:44;;;;;;;;;;;9.30;99.90;;;;;;4993101;28;20331;-84
2022/04/10 08:08:10;;;;;;;;;;;9.40;99.90;;;;;;4991711;28;19921;-84
2022/04/10 08:10:37;;;;;;;;;;;9.50;99.90;;;;;;4993135;28;20247;-84
2022/04/10 08:13:02;;;;;;;;;;;9.60;99.90;;;;;;4993060;28;19913;-85
2022/04/10 08:15:28;;;;;;;;;;;9.70;99.90;;;;;;4993160;28;19965;-85
2022/04/10 08:17:54;;;;;;;;;;;9.80;99.90;;;;;;4993264;28;19957;-85
2022/04/10 08:20:20;;;;;;;;;;;9.90;99.90;;;;;;4993204;28;19910;-84
2022/04/10 08:22:47;;;;;;;;;;;10.00;99.90;;;;;;4991324;28;20162;-85
2022/04/10 08:25:14;;;;;;;;;;;10.10;99.90;;;;;;4991497;28;19932;-85
2022/04/10 08:27:40;;;;;;;;;;;10.20;99.90;;;;;;5008083;28;19910;-85
2022/04/10 08:30:09;;;;;;;;;;;10.30;99.90;;;;;;4992854;28;19957;-85
2022/04/10 08:32:38;;;;;;;;;;;10.40;99.90;;;;;;4993719;28;19969;-85
2022/04/10 08:35:04;;;;;;;;;;;10.40;99.90;;;;;;4991490;28;19910;-85
2022/04/10 08:37:30;;;;;;;;;;;10.50;99.90;;;;;;4991032;28;19925;-85
2022/04/10 08:39:55;;;;;;;;;;;10.60;99.90;;;;;;4991239;28;20010;-84
2022/04/10 08:42:21;;;;;;;;;;;10.70;99.90;;;;;;4991672;28;19933;-84
2022/04/10 08:44:46;;;;;;;;;;;10.80;99.90;;;;;;4992330;28;19940;-84
2022/04/10 08:47:15;;;;;;;;;;;11.00;99.90;;;;;;4992308;28;19932;-86
2022/04/10 08:49:41;;;;;;;;;;;11.10;99.90;;;;;;4991814;28;20290;-85
2022/04/10 08:52:07;;;;;;;;;;;11.20;99.90;;;;;;4990873;28;19914;-85
2022/04/10 08:54:34;;;;;;;;;;;11.30;99.90;;;;;;4992065;28;19914;-85
2022/04/10 08:56:59;;;;;;;;;;;11.40;99.90;;;;;;4992084;28;20347;-85
2022/04/10 08:59:25;;;;;;;;;;;11.50;99.90;;;;;;4991863;28;19914;-85
2022/04/10 09:01:51;;;;;;;;;;;11.50;99.90;;;;;;4991966;28;19910;-85
2022/04/10 09:04:17;;;;;;;;;;;11.60;99.90;;;;;;4992048;28;19921;-85
2022/04/10 09:06:55;;;;;;;;;;;11.80;99.90;;;;;;4990636;28;19914;-84
2022/04/10 09:09:20;;;;;;;;;;;11.80;99.90;;;;;;4991839;28;19961;-84
2022/04/10 09:11:46;;;;;;;;;;;11.90;99.90;;;;;;4990582;28;19949;-85
2022/04/10 09:14:19;;;;;;;;;;;12.00;99.90;;;;;;4991816;28;19956;-84
2022/04/10 09:16:44;;;;;;;;;;;12.10;99.90;;;;;;4991555;28;19909;-84
2022/04/10 09:19:10;;;;;;;;;;;12.20;99.90;;;;;;4991679;28;19917;-84
2022/04/10 09:21:38;;;;;;;;;;;12.20;99.90;;;;;;4991554;28;19910;-84
2022/04/10 09:24:04;;;;;;;;;;;12.30;99.90;;;;;;4991928;28;20401;-84
2022/04/10 09:26:43;;;;;;;;;;;12.30;99.90;;;;;;4990363;28;19910;-84
2022/04/10 09:29:10;;;;;;;;;;;12.40;99.90;;;;;;4990606;28;19917;-84
2022/04/10 09:31:36;;;;;;;;;;;12.50;99.90;;;;;;4992042;28;20278;-84
2022/04/10 09:34:02;;;;;;;;;;;12.50;99.90;;;;;;4991422;28;19917;-84
2022/04/10 09:36:35;;;;;;;;;;;12.70;99.90;;;;;;4991546;28;19910;-85
2022/04/10 09:39:02;;;;;;;;;;;12.70;99.90;;;;;;4991380;28;19953;-84
2022/04/10 09:41:27;;;;;;;;;;;12.80;99.90;;;;;;4990016;28;19932;-85
2022/04/10 09:43:53;;;;;;;;;;;12.90;99.90;;;;;;4990030;28;19918;-84
2022/04/10 09:46:18;;;;;;;;;;;12.90;99.90;;;;;;4989660;28;19917;-85
2022/04/10 09:48:44;;;;;;;;;;;13.00;99.90;;;;;;4990354;28;19917;-84
2022/04/10 09:51:10;;;;;;;;;;;13.10;99.90;;;;;;4991476;28;20432;-84
2022/04/10 09:53:36;;;;;;;;;;;13.10;99.90;;;;;;4991370;28;19914;-84
2022/04/10 09:56:03;;;;;;;;;;;13.10;99.90;;;;;;4993384;28;19916;-84
2022/04/10 09:58:29;;;;;;;;;;;13.10;99.90;;;;;;4995434;28;19917;-85
2022/04/10 10:00:55;;;;;;;;;;;13.10;99.90;;;;;;4995098;28;20375;-85
2022/04/10 10:03:21;;;;;;;;;;;13.30;99.90;;;;;;5010161;28;20441;-84
2022/04/10 10:05:49;;;;;;;;;;;13.30;99.30;;;;;;4995306;28;19910;-85
2022/04/10 10:08:16;;;;;;;;;;;13.40;99.90;;;;;;4993899;28;20354;-84
2022/04/10 10:10:42;;;;;;;;;;;13.50;99.50;;;;;;4993988;28;19964;-85
2022/04/10 10:13:07;;;;;;;;;;;13.60;99.70;;;;;;4995396;28;19909;-84
2022/04/10 10:15:36;;;;;;;;;;;13.70;99.80;;;;;;4995129;28;20350;-85
2022/04/10 10:18:02;;;;;;;;;;;13.80;99.50;;;;;;4994070;28;20000;-84
2022/04/10 10:20:28;;;;;;;;;;;13.90;98.90;;;;;;4994926;28;19910;-85
2022/04/10 10:22:54;;;;;;;;;;;14.00;98.20;;;;;;4994822;28;19918;-84
2022/04/10 10:25:20;;;;;;;;;;;14.10;97.80;;;;;;4994685;28;19956;-84
2022/04/10 10:27:45;;;;;;;;;;;14.10;97.90;;;;;;4994842;28;19976;-85
2022/04/10 10:30:18;;;;;;;;;;;14.20;98.00;;;;;;4993582;28;20060;-85
2022/04/10 10:32:56;;;;;;;;;;;14.40;97.70;;;;;;4994095;28;19968;-85
2022/04/10 10:35:35;;;;;;;;;;;14.50;97.70;;;;;;4994357;28;19910;-85
2022/04/10 10:38:01;;;;;;;;;;;14.70;96.60;;;;;;4994735;28;19910;-86
2022/04/10 10:40:26;;;;;;;;;;;14.70;97.30;;;;;;4993099;28;20413;-86
2022/04/10 10:42:55;;;;;;;;;;;14.80;95.60;;;;;;4993211;28;20168;-86
2022/04/10 10:45:37;;;;;;;;;;;14.80;95.40;;;;;;4994454;28;20204;-86
2022/04/10 10:48:21;;;;;;;;;;;14.70;94.40;;;;;;4996661;28;20221;-87
2022/04/10 10:50:47;;;;;;;;;;;14.80;95.40;;;;;;4993179;28;19914;-85
2022/04/10 10:53:13;;;;;;;;;;;15.10;95.60;;;;;;4996293;28;19917;-86
2022/04/10 10:55:45;;;;;;;;;;;15.10;95.70;;;;;;5011724;28;19996;-86
2022/04/10 10:58:14;;;;;;;;;;;15.20;95.30;;;;;;4993989;28;19917;-86
2022/04/10 11:00:39;;;;;;;;;;;15.20;94.20;;;;;;4993579;28;20027;-87
2022/04/10 11:03:11;;;;;;;;;;;15.20;95.60;;;;;;4999874;28;20398;-86
2022/04/10 11:05:38;;;;;;;;;;;15.40;95.70;;;;;;4996042;28;19914;-85
2022/04/10 11:08:08;;;;;;;;;;;15.40;95.60;;;;;;4993500;28;20592;-86
2022/04/10 11:10:50;;;;;;;;;;;15.50;95.80;;;;;;4987109;28;19914;-86
2022/04/10 11:13:18;;;;;;;;;;;15.60;95.70;;;;;;4973982;28;19917;-86
2022/04/10 11:15:47;;;;;;;;;;;15.80;93.60;;;;;;4973792;28;19969;-86
2022/04/10 11:18:39;;;;;;;;;;;15.80;94.70;;;;;;4974022;28;19925;-86
2022/04/10 11:21:07;;;;;;;;;;;15.90;95.30;;;;;;4983462;28;19909;-86
2022/04/10 11:23:36;;;;;;;;;;;16.00;94.30;;;;;;4994309;28;19925;-88
2022/04/10 11:26:07;;;;;;;;;;;16.10;94.70;;;;;;4993802;28;19917;-86
2022/04/10 11:28:52;;;;;;;;;;;16.20;93.30;;;;;;4994073;28;20374;-86
2022/04/10 11:31:30;;;;;;;;;;;16.30;93.80;;;;;;4993718;28;19995;-86
2022/04/10 11:34:06;;;;;;;;;;;16.40;93.10;;;;;;4993085;28;19917;-86
2022/04/10 11:36:43;;;;;;;;;;;16.50;93.60;;;;;;4993471;28;20049;-86
2022/04/10 11:39:09;;;;;;;;;;;16.60;93.60;;;;;;4993258;28;19910;-87
2022/04/10 11:41:35;;;;;;;;;;;16.70;93.90;;;;;;4993620;28;19909;-86
2022/04/10 11:44:01;;;;;;;;;;;16.80;92.80;;;;;;4992287;28;19925;-86
2022/04/10 11:46:29;;;;;;;;;;;17.00;92.60;;;;;;4993493;28;20374;-88
2022/04/10 11:48:55;;;;;;;;;;;17.10;93.30;;;;;;4993367;28;19957;-86
2022/04/10 11:51:20;;;;;;;;;;;17.10;91.50;;;;;;4994557;28;19945;-86
2022/04/10 11:53:53;;;;;;;;;;;17.20;91.60;;;;;;4992319;28;19917;-86
2022/04/10 11:56:19;;;;;;;;;;;17.20;91.50;;;;;;4994519;28;19917;-86
2022/04/10 11:58:44;;;;;;;;;;;17.30;92.30;;;;;;4993931;28;19910;-85
2022/04/10 12:01:12;;;;;;;;;;;17.30;92.30;;;;;;4994979;28;20449;-86
2022/04/10 12:03:40;;;;;;;;;;;17.30;92.40;;;;;;4992392;28;19972;-85
2022/04/10 12:06:06;;;;;;;;;;;17.30;92.30;;;;;;4993045;28;19910;-90
2022/04/10 12:08:31;;;;;;;;;;;17.40;92.40;;;;;;5000922;28;19944;-88
2022/04/10 12:10:58;;;;;;;;;;;17.50;93.00;;;;;;4997095;28;19916;-86
2022/04/10 12:13:31;;;;;;;;;;;17.40;91.90;;;;;;5002686;28;19983;-86
2022/04/10 12:16:16;;;;;;;;;;;17.70;92.70;;;;;;4999102;28;19939;-86
2022/04/10 12:19:00;;;;;;;;;;;17.70;92.10;;;;;;5002943;28;19916;-86
2022/04/10 12:21:25;;;;;;;;;;;17.80;92.40;;;;;;5019027;28;19961;-86
2022/04/10 12:24:03;;;;;;;;;;;18.00;92.00;;;;;;5003853;28;19914;-85
2022/04/10 12:26:29;;;;;;;;;;;18.10;91.00;;;;;;5003919;28;19906;-86
2022/04/10 12:28:55;;;;;;;;;;;18.30;92.10;;;;;;5003838;28;19906;-86
2022/04/10 12:31:21;;;;;;;;;;;18.40;91.50;;;;;;5003418;28;19976;-86
2022/04/10 12:33:47;;;;;;;;;;;18.50;91.40;;;;;;4996804;28;19921;-85
2022/04/10 12:36:20;;;;;;;;;;;18.60;91.50;;;;;;5001394;28;20102;-86
2022/04/10 12:38:50;;;;;;;;;;;18.90;91.80;;;;;;5002941;28;20056;-85
2022/04/10 12:41:24;;;;;;;;;;;19.00;90.70;;;;;;5003457;28;19906;-85
2022/04/10 12:43:58;;;;;;;;;;;19.00;90.90;;;;;;5003555;28;19914;-85
2022/04/10 12:46:31;;;;;;;;;;;19.00;91.20;;;;;;5003389;28;20166;-85
2022/04/10 12:49:11;;;;;;;;;;;19.20;90.80;;;;;;5002265;28;20158;-86
2022/04/10 12:51:47;;;;;;;;;;;19.20;91.10;;;;;;5003097;28;19905;-86
2022/04/10 12:54:13;;;;;;;;;;;19.20;90.90;;;;;;5003753;28;19909;-86
2022/04/10 12:56:38;;;;;;;;;;;19.30;91.40;;;;;;5003027;28;19906;-86
2022/04/10 12:59:04;;;;;;;;;;;19.60;91.00;;;;;;5002126;28;19913;-85
2022/04/10 13:01:31;;;;;;;;;;;19.60;91.60;;;;;;5002447;28;19906;-86
2022/04/10 13:03:59;;;;;;;;;;;19.40;91.00;;;;;;5001892;28;20739;-86
2022/04/10 13:06:43;;;;;;;;;;;19.50;91.20;;;;;;5002520;28;19914;-85
2022/04/10 13:09:11;;;;;;;;;;;19.70;90.10;;;;;;5002757;28;20106;-86
2022/04/10 13:11:37;;;;;;;;;;;19.70;91.30;;;;;;5002034;28;19956;-85
2022/04/10 13:14:03;;;;;;;;;;;19.90;90.40;;;;;;5002472;28;19910;-85
2022/04/10 13:16:37;;;;;;;;;;;20.00;90.20;;;;;;5001299;28;20186;-86
2022/04/10 13:19:03;;;;;;;;;;;20.10;90.20;;;;;;5002687;28;19906;-86
2022/04/10 13:21:29;;;;;;;;;;;20.50;91.00;;;;;;5002921;28;19906;-86
2022/04/10 13:23:54;;;;;;;;;;;20.70;89.70;;;;;;5002150;28;19981;-86
2022/04/10 13:26:27;;;;;;;;;;;20.70;88.10;;;;;;5001662;28;19910;-86
2022/04/10 13:28:53;;;;;;;;;;;20.90;88.90;;;;;;5001163;28;19913;-86
2022/04/10 13:31:19;;;;;;;;;;;20.80;87.20;;;;;;5001471;28;19905;-86
2022/04/10 13:33:48;;;;;;;;;;;20.90;89.00;;;;;;5002301;28;19910;-86
2022/04/10 13:36:13;;;;;;;;;;;21.10;87.90;;;;;;5002291;28;19912;-85
2022/04/10 13:38:39;;;;;;;;;;;21.00;85.20;;;;;;5002795;28;20106;-86
2022/04/10 13:41:05;;;;;;;;;;;21.00;86.80;;;;;;5001014;28;19909;-86
2022/04/10 13:43:30;;;;;;;;;;;21.20;86.30;;;;;;5000752;28;19992;-86
2022/04/10 13:45:56;;;;;;;;;;;21.40;86.30;;;;;;5000517;28;20244;-86
2022/04/10 13:48:22;;;;;;;;;;;21.60;84.50;;;;;;5000940;28;19929;-86
2022/04/10 13:50:47;;;;;;;;;;;21.40;85.90;;;;;;5001383;28;19929;-86
2022/04/10 13:53:13;;;;;;;;;;;21.60;83.80;;;;;;5000887;28;19952;-86
2022/04/10 13:55:38;;;;;;;;;;;21.60;82.90;;;;;;5001275;28;19905;-86
2022/04/10 13:58:04;;;;;;;;;;;22.00;83.80;;;;;;5001107;28;19906;-86
2022/04/10 14:00:30;;;;;;;;;;;22.40;82.80;;;;;;5017799;28;20097;-86
2022/04/10 14:02:55;;;;;;;;;;;22.80;80.80;;;;;;5003151;28;20147;-87
2022/04/10 14:05:21;;;;;;;;;;;23.20;80.50;;;;;;5001711;28;19910;-86
2022/04/10 14:07:46;;;;;;;;;;;23.60;79.70;;;;;;5001926;28;19917;-86
2022/04/10 14:10:12;;;;;;;;;;;24.30;78.60;;;;;;5002194;28;19945;-86
2022/04/10 14:12:37;;;;;;;;;;;24.50;76.90;;;;;;5000981;28;19909;-87
2022/04/10 14:15:03;;;;;;;;;;;24.60;76.60;;;;;;5001900;28;19914;-86
2022/04/10 14:17:29;;;;;;;;;;;24.90;75.90;;;;;;4997093;28;19925;-86
2022/04/10 14:19:54;;;;;;;;;;;25.00;75.40;;;;;;4990059;28;19914;-86
2022/04/10 14:22:20;;;;;;;;;;;25.20;75.80;;;;;;4996144;28;19917;-87
2022/04/10 14:24:46;;;;;;;;;;;25.90;74.50;;;;;;4989543;28;19917;-86
2022/04/10 14:27:11;;;;;;;;;;;26.40;73.00;;;;;;4990950;28;19910;-86